sensor_id;sensor_type;location;lat;lon;timestamp;P1;durP1;ratioP1;P2;durP2;ratioP2
70675;SDS011;59069;52.242;20.900;2024-01-06T00:01:36;16.03;;;4.50;;
70675;SDS011;59069;52.242;20.900;2024-01-06T00:04:01;14.23;;;5.05;;
70675;SDS011;59069;52.242;20.900;2024-01-06T00:06:27;11.47;;;4.83;;
70675;SDS011;59069;52.242;20.900;2024-01-06T00:08:52;14.37;;;5.03;;
70675;SDS011;59069;52.242;20.900;2024-01-06T00:11:20;14.80;;;4.78;;
70675;SDS011;59069;52.242;20.900;2024-01-06T00:13:46;15.70;;;5.23;;
70675;SDS011;59069;52.242;20.900;2024-01-06T00:16:11;15.95;;;5.30;;
70675;SDS011;59069;52.242;20.900;2024-01-06T00:18:37;16.83;;;6.60;;
70675;SDS011;59069;52.242;20.900;2024-01-06T00:21:06;15.40;;;5.50;;
70675;SDS011;59069;52.242;20.900;2024-01-06T00:23:31;18.23;;;6.80;;
70675;SDS011;59069;52.242;20.900;2024-01-06T00:25:56;16.70;;;6.40;;
70675;SDS011;59069;52.242;20.900;2024-01-06T00:28:22;16.03;;;6.83;;
70675;SDS011;59069;52.242;20.900;2024-01-06T00:30:47;17.47;;;6.27;;
70675;SDS011;59069;52.242;20.900;2024-01-06T00:33:13;17.30;;;6.20;;
70675;SDS011;59069;52.242;20.900;2024-01-06T00:35:38;19.83;;;6.13;;
70675;SDS011;59069;52.242;20.900;2024-01-06T00:38:03;16.77;;;6.37;;
70675;SDS011;59069;52.242;20.900;2024-01-06T00:40:29;15.23;;;5.75;;
70675;SDS011;59069;52.242;20.900;2024-01-06T00:42:55;18.83;;;6.00;;
70675;SDS011;59069;52.242;20.900;2024-01-06T00:45:21;16.43;;;6.27;;
70675;SDS011;59069;52.242;20.900;2024-01-06T00:47:47;18.50;;;6.47;;
70675;SDS011;59069;52.242;20.900;2024-01-06T00:50:12;18.05;;;6.43;;
70675;SDS011;59069;52.242;20.900;2024-01-06T00:52:38;17.70;;;6.23;;
70675;SDS011;59069;52.242;20.900;2024-01-06T00:55:03;19.23;;;5.93;;
70675;SDS011;59069;52.242;20.900;2024-01-06T00:57:29;18.35;;;6.28;;
70675;SDS011;59069;52.242;20.900;2024-01-06T00:59:54;17.07;;;6.30;;
70675;SDS011;59069;52.242;20.900;2024-01-06T01:02:20;18.13;;;6.40;;
70675;SDS011;59069;52.242;20.900;2024-01-06T01:04:47;16.08;;;6.00;;
70675;SDS011;59069;52.242;20.900;2024-01-06T01:07:12;17.47;;;6.47;;
70675;SDS011;59069;52.242;20.900;2024-01-06T01:09:37;14.48;;;5.75;;
70675;SDS011;59069;52.242;20.900;2024-01-06T01:12:03;15.87;;;5.83;;
70675;SDS011;59069;52.242;20.900;2024-01-06T01:14:28;16.23;;;5.93;;
70675;SDS011;59069;52.242;20.900;2024-01-06T01:16:54;14.40;;;5.83;;
70675;SDS011;59069;52.242;20.900;2024-01-06T01:19:19;13.90;;;5.73;;
70675;SDS011;59069;52.242;20.900;2024-01-06T01:21:44;15.40;;;5.50;;
70675;SDS011;59069;52.242;20.900;2024-01-06T01:24:10;15.57;;;5.97;;
70675;SDS011;59069;52.242;20.900;2024-01-06T01:26:35;17.13;;;5.57;;
70675;SDS011;59069;52.242;20.900;2024-01-06T01:29:01;14.80;;;5.37;;
70675;SDS011;59069;52.242;20.900;2024-01-06T01:31:26;13.90;;;5.68;;
70675;SDS011;59069;52.242;20.900;2024-01-06T01:33:51;11.80;;;4.40;;
70675;SDS011;59069;52.242;20.900;2024-01-06T01:36:17;14.50;;;5.07;;
70675;SDS011;59069;52.242;20.900;2024-01-06T01:38:43;16.27;;;5.95;;
70675;SDS011;59069;52.242;20.900;2024-01-06T01:41:08;14.03;;;5.90;;
70675;SDS011;59069;52.242;20.900;2024-01-06T01:43:34;13.47;;;5.17;;
70675;SDS011;59069;52.242;20.900;2024-01-06T01:45:59;14.40;;;5.37;;
70675;SDS011;59069;52.242;20.900;2024-01-06T01:48:25;13.25;;;4.68;;
70675;SDS011;59069;52.242;20.900;2024-01-06T01:50:51;14.30;;;4.90;;
70675;SDS011;59069;52.242;20.900;2024-01-06T01:53:18;16.25;;;5.15;;
70675;SDS011;59069;52.242;20.900;2024-01-06T01:55:44;15.35;;;5.32;;
70675;SDS011;59069;52.242;20.900;2024-01-06T01:58:11;12.07;;;4.60;;
70675;SDS011;59069;52.242;20.900;2024-01-06T02:00:37;14.40;;;5.00;;
70675;SDS011;59069;52.242;20.900;2024-01-06T02:03:04;12.85;;;4.53;;
70675;SDS011;59069;52.242;20.900;2024-01-06T02:05:30;14.30;;;4.68;;
70675;SDS011;59069;52.242;20.900;2024-01-06T02:07:55;15.47;;;5.23;;
70675;SDS011;59069;52.242;20.900;2024-01-06T02:10:21;13.80;;;4.47;;
70675;SDS011;59069;52.242;20.900;2024-01-06T02:12:47;13.17;;;4.93;;
70675;SDS011;59069;52.242;20.900;2024-01-06T02:15:13;12.30;;;4.45;;
70675;SDS011;59069;52.242;20.900;2024-01-06T02:17:42;13.07;;;4.60;;
70675;SDS011;59069;52.242;20.900;2024-01-06T02:20:07;12.57;;;4.20;;
70675;SDS011;59069;52.242;20.900;2024-01-06T02:22:36;11.98;;;4.07;;
70675;SDS011;59069;52.242;20.900;2024-01-06T02:25:02;13.82;;;4.63;;
70675;SDS011;59069;52.242;20.900;2024-01-06T02:27:32;14.10;;;4.60;;
70675;SDS011;59069;52.242;20.900;2024-01-06T02:29:58;11.93;;;4.50;;
70675;SDS011;59069;52.242;20.900;2024-01-06T02:32:23;11.43;;;3.53;;
70675;SDS011;59069;52.242;20.900;2024-01-06T02:34:48;12.83;;;4.27;;
70675;SDS011;59069;52.242;20.900;2024-01-06T02:37:14;10.47;;;3.70;;
70675;SDS011;59069;52.242;20.900;2024-01-06T02:39:39;10.80;;;3.83;;
70675;SDS011;59069;52.242;20.900;2024-01-06T02:42:04;10.70;;;3.73;;
70675;SDS011;59069;52.242;20.900;2024-01-06T02:44:30;10.00;;;3.30;;
70675;SDS011;59069;52.242;20.900;2024-01-06T02:46:55;11.33;;;4.17;;
70675;SDS011;59069;52.242;20.900;2024-01-06T02:49:21;14.95;;;4.20;;
70675;SDS011;59069;52.242;20.900;2024-01-06T02:51:46;12.03;;;3.80;;
70675;SDS011;59069;52.242;20.900;2024-01-06T02:54:12;9.63;;;3.50;;
70675;SDS011;59069;52.242;20.900;2024-01-06T02:56:37;9.77;;;3.17;;
70675;SDS011;59069;52.242;20.900;2024-01-06T02:59:03;10.52;;;3.95;;
70675;SDS011;59069;52.242;20.900;2024-01-06T03:01:29;13.03;;;4.23;;
70675;SDS011;59069;52.242;20.900;2024-01-06T03:03:54;11.93;;;4.13;;
70675;SDS011;59069;52.242;20.900;2024-01-06T03:06:20;11.05;;;3.80;;
70675;SDS011;59069;52.242;20.900;2024-01-06T03:08:45;11.13;;;3.77;;
70675;SDS011;59069;52.242;20.900;2024-01-06T03:11:10;15.10;;;4.33;;
70675;SDS011;59069;52.242;20.900;2024-01-06T03:13:36;12.60;;;4.50;;
70675;SDS011;59069;52.242;20.900;2024-01-06T03:16:04;12.77;;;4.57;;
70675;SDS011;59069;52.242;20.900;2024-01-06T03:18:32;13.10;;;4.13;;
70675;SDS011;59069;52.242;20.900;2024-01-06T03:20:58;12.87;;;4.70;;
70675;SDS011;59069;52.242;20.900;2024-01-06T03:23:23;13.75;;;4.88;;
70675;SDS011;59069;52.242;20.900;2024-01-06T03:25:48;12.43;;;4.20;;
70675;SDS011;59069;52.242;20.900;2024-01-06T03:28:14;13.37;;;4.93;;
70675;SDS011;59069;52.242;20.900;2024-01-06T03:30:39;11.27;;;4.27;;
70675;SDS011;59069;52.242;20.900;2024-01-06T03:33:05;13.02;;;4.93;;
70675;SDS011;59069;52.242;20.900;2024-01-06T03:35:31;12.07;;;4.68;;
70675;SDS011;59069;52.242;20.900;2024-01-06T03:37:57;11.33;;;4.20;;
70675;SDS011;59069;52.242;20.900;2024-01-06T03:40:22;12.87;;;4.67;;
70675;SDS011;59069;52.242;20.900;2024-01-06T03:42:47;12.60;;;4.53;;
70675;SDS011;59069;52.242;20.900;2024-01-06T03:45:13;12.53;;;4.60;;
70675;SDS011;59069;52.242;20.900;2024-01-06T03:47:38;12.40;;;4.32;;
70675;SDS011;59069;52.242;20.900;2024-01-06T03:50:04;13.20;;;5.20;;
70675;SDS011;59069;52.242;20.900;2024-01-06T03:52:29;13.48;;;4.78;;
70675;SDS011;59069;52.242;20.900;2024-01-06T03:54:55;11.33;;;4.30;;
70675;SDS011;59069;52.242;20.900;2024-01-06T03:57:20;14.47;;;4.40;;
70675;SDS011;59069;52.242;20.900;2024-01-06T03:59:46;14.93;;;5.03;;
70675;SDS011;59069;52.242;20.900;2024-01-06T04:02:11;13.03;;;4.83;;
70675;SDS011;59069;52.242;20.900;2024-01-06T04:04:36;13.13;;;5.37;;
70675;SDS011;59069;52.242;20.900;2024-01-06T04:07:02;13.50;;;5.27;;
70675;SDS011;59069;52.242;20.900;2024-01-06T04:09:27;13.03;;;5.03;;
70675;SDS011;59069;52.242;20.900;2024-01-06T04:11:53;14.13;;;5.00;;
70675;SDS011;59069;52.242;20.900;2024-01-06T04:14:18;15.30;;;5.10;;
70675;SDS011;59069;52.242;20.900;2024-01-06T04:16:43;15.33;;;5.40;;
70675;SDS011;59069;52.242;20.900;2024-01-06T04:19:09;13.83;;;5.57;;
70675;SDS011;59069;52.242;20.900;2024-01-06T04:21:36;12.82;;;5.25;;
70675;SDS011;59069;52.242;20.900;2024-01-06T04:24:02;14.50;;;5.37;;
70675;SDS011;59069;52.242;20.900;2024-01-06T04:26:27;14.60;;;4.73;;
70675;SDS011;59069;52.242;20.900;2024-01-06T04:28:52;15.43;;;5.50;;
70675;SDS011;59069;52.242;20.900;2024-01-06T04:31:18;15.73;;;5.82;;
70675;SDS011;59069;52.242;20.900;2024-01-06T04:33:43;14.63;;;5.50;;
70675;SDS011;59069;52.242;20.900;2024-01-06T04:36:08;14.17;;;5.70;;
70675;SDS011;59069;52.242;20.900;2024-01-06T04:38:34;16.27;;;5.60;;
70675;SDS011;59069;52.242;20.900;2024-01-06T04:40:59;13.97;;;5.13;;
70675;SDS011;59069;52.242;20.900;2024-01-06T04:43:25;13.90;;;5.88;;
70675;SDS011;59069;52.242;20.900;2024-01-06T04:45:51;16.53;;;5.97;;
70675;SDS011;59069;52.242;20.900;2024-01-06T04:48:16;14.05;;;5.80;;
70675;SDS011;59069;52.242;20.900;2024-01-06T04:50:41;16.47;;;6.23;;
70675;SDS011;59069;52.242;20.900;2024-01-06T04:53:07;13.80;;;5.73;;
70675;SDS011;59069;52.242;20.900;2024-01-06T04:55:33;16.40;;;5.95;;
70675;SDS011;59069;52.242;20.900;2024-01-06T04:57:58;13.83;;;5.63;;
70675;SDS011;59069;52.242;20.900;2024-01-06T05:00:23;15.87;;;5.83;;
70675;SDS011;59069;52.242;20.900;2024-01-06T05:02:50;16.50;;;6.35;;
70675;SDS011;59069;52.242;20.900;2024-01-06T05:05:15;14.43;;;5.27;;
70675;SDS011;59069;52.242;20.900;2024-01-06T05:07:41;18.73;;;5.93;;
70675;SDS011;59069;52.242;20.900;2024-01-06T05:10:06;16.17;;;5.50;;
70675;SDS011;59069;52.242;20.900;2024-01-06T05:12:32;15.35;;;5.72;;
70675;SDS011;59069;52.242;20.900;2024-01-06T05:14:58;16.30;;;6.00;;
70675;SDS011;59069;52.242;20.900;2024-01-06T05:17:23;15.18;;;5.38;;
70675;SDS011;59069;52.242;20.900;2024-01-06T05:19:48;14.50;;;5.23;;
70675;SDS011;59069;52.242;20.900;2024-01-06T05:22:14;18.50;;;6.10;;
70675;SDS011;59069;52.242;20.900;2024-01-06T05:24:39;12.90;;;4.87;;
70675;SDS011;59069;52.242;20.900;2024-01-06T05:27:04;14.67;;;5.47;;
70675;SDS011;59069;52.242;20.900;2024-01-06T05:29:30;15.57;;;5.57;;
70675;SDS011;59069;52.242;20.900;2024-01-06T05:31:55;12.48;;;4.85;;
70675;SDS011;59069;52.242;20.900;2024-01-06T05:34:21;14.87;;;5.10;;
70675;SDS011;59069;52.242;20.900;2024-01-06T05:36:46;14.53;;;5.57;;
70675;SDS011;59069;52.242;20.900;2024-01-06T05:39:11;13.33;;;5.13;;
70675;SDS011;59069;52.242;20.900;2024-01-06T05:41:37;14.10;;;5.20;;
70675;SDS011;59069;52.242;20.900;2024-01-06T05:44:04;14.87;;;5.47;;
70675;SDS011;59069;52.242;20.900;2024-01-06T05:46:30;14.82;;;5.25;;
70675;SDS011;59069;52.242;20.900;2024-01-06T05:48:55;14.23;;;5.17;;
70675;SDS011;59069;52.242;20.900;2024-01-06T05:51:21;14.95;;;5.93;;
70675;SDS011;59069;52.242;20.900;2024-01-06T05:53:47;14.87;;;5.47;;
70675;SDS011;59069;52.242;20.900;2024-01-06T05:56:21;15.20;;;5.07;;
70675;SDS011;59069;52.242;20.900;2024-01-06T05:58:50;18.02;;;5.57;;
70675;SDS011;59069;52.242;20.900;2024-01-06T06:01:15;17.10;;;5.83;;
70675;SDS011;59069;52.242;20.900;2024-01-06T06:03:41;16.55;;;5.80;;
70675;SDS011;59069;52.242;20.900;2024-01-06T06:06:08;19.10;;;6.17;;
70675;SDS011;59069;52.242;20.900;2024-01-06T06:08:33;18.60;;;6.15;;
70675;SDS011;59069;52.242;20.900;2024-01-06T06:10:58;16.73;;;5.33;;
70675;SDS011;59069;52.242;20.900;2024-01-06T06:13:27;18.02;;;6.53;;
70675;SDS011;59069;52.242;20.900;2024-01-06T06:15:53;18.50;;;6.90;;
70675;SDS011;59069;52.242;20.900;2024-01-06T06:18:20;17.75;;;6.22;;
70675;SDS011;59069;52.242;20.900;2024-01-06T06:20:45;17.42;;;5.90;;
70675;SDS011;59069;52.242;20.900;2024-01-06T06:23:11;15.40;;;6.03;;
70675;SDS011;59069;52.242;20.900;2024-01-06T06:25:38;16.52;;;6.38;;
70675;SDS011;59069;52.242;20.900;2024-01-06T06:28:03;16.97;;;6.13;;
70675;SDS011;59069;52.242;20.900;2024-01-06T06:30:29;19.17;;;7.03;;
70675;SDS011;59069;52.242;20.900;2024-01-06T06:32:54;18.80;;;6.90;;
70675;SDS011;59069;52.242;20.900;2024-01-06T06:35:20;18.73;;;7.53;;
70675;SDS011;59069;52.242;20.900;2024-01-06T06:37:47;19.00;;;7.05;;
70675;SDS011;59069;52.242;20.900;2024-01-06T06:40:12;18.57;;;6.87;;
70675;SDS011;59069;52.242;20.900;2024-01-06T06:42:38;20.45;;;7.32;;
70675;SDS011;59069;52.242;20.900;2024-01-06T06:45:03;15.17;;;6.07;;
70675;SDS011;59069;52.242;20.900;2024-01-06T06:47:29;16.57;;;6.37;;
70675;SDS011;59069;52.242;20.900;2024-01-06T06:49:54;21.15;;;7.28;;
70675;SDS011;59069;52.242;20.900;2024-01-06T06:52:19;17.43;;;6.40;;
70675;SDS011;59069;52.242;20.900;2024-01-06T06:54:45;19.67;;;6.97;;
70675;SDS011;59069;52.242;20.900;2024-01-06T06:57:10;17.80;;;6.73;;
70675;SDS011;59069;52.242;20.900;2024-01-06T06:59:36;18.70;;;6.68;;
70675;SDS011;59069;52.242;20.900;2024-01-06T07:02:02;16.80;;;6.80;;
70675;SDS011;59069;52.242;20.900;2024-01-06T07:04:27;20.63;;;7.90;;
70675;SDS011;59069;52.242;20.900;2024-01-06T07:06:53;17.77;;;6.40;;
70675;SDS011;59069;52.242;20.900;2024-01-06T07:09:18;17.33;;;7.30;;
70675;SDS011;59069;52.242;20.900;2024-01-06T07:11:43;16.43;;;6.60;;
70675;SDS011;59069;52.242;20.900;2024-01-06T07:14:09;20.43;;;7.83;;
70675;SDS011;59069;52.242;20.900;2024-01-06T07:16:34;21.80;;;6.68;;
70675;SDS011;59069;52.242;20.900;2024-01-06T07:18:59;16.53;;;7.13;;
70675;SDS011;59069;52.242;20.900;2024-01-06T07:21:25;16.87;;;7.00;;
70675;SDS011;59069;52.242;20.900;2024-01-06T07:23:50;16.80;;;6.60;;
70675;SDS011;59069;52.242;20.900;2024-01-06T07:26:16;20.80;;;7.00;;
70675;SDS011;59069;52.242;20.900;2024-01-06T07:28:41;15.52;;;6.40;;
70675;SDS011;59069;52.242;20.900;2024-01-06T07:31:06;19.40;;;7.53;;
70675;SDS011;59069;52.242;20.900;2024-01-06T07:33:32;17.13;;;6.30;;
70675;SDS011;59069;52.242;20.900;2024-01-06T07:35:57;15.33;;;6.30;;
70675;SDS011;59069;52.242;20.900;2024-01-06T07:38:22;16.67;;;5.97;;
70675;SDS011;59069;52.242;20.900;2024-01-06T07:40:48;19.95;;;7.32;;
70675;SDS011;59069;52.242;20.900;2024-01-06T07:43:13;18.03;;;6.70;;
70675;SDS011;59069;52.242;20.900;2024-01-06T07:45:40;15.85;;;6.95;;
70675;SDS011;59069;52.242;20.900;2024-01-06T07:48:06;19.00;;;7.17;;
70675;SDS011;59069;52.242;20.900;2024-01-06T07:50:32;15.10;;;6.22;;
70675;SDS011;59069;52.242;20.900;2024-01-06T07:52:57;19.17;;;6.93;;
70675;SDS011;59069;52.242;20.900;2024-01-06T07:55:23;18.83;;;7.03;;
70675;SDS011;59069;52.242;20.900;2024-01-06T07:57:48;18.63;;;6.60;;
70675;SDS011;59069;52.242;20.900;2024-01-06T08:00:13;18.27;;;6.63;;
70675;SDS011;59069;52.242;20.900;2024-01-06T08:02:39;20.43;;;6.97;;
70675;SDS011;59069;52.242;20.900;2024-01-06T08:05:05;16.15;;;6.82;;
70675;SDS011;59069;52.242;20.900;2024-01-06T08:07:32;19.98;;;6.93;;
70675;SDS011;59069;52.242;20.900;2024-01-06T08:09:57;20.47;;;6.70;;
70675;SDS011;59069;52.242;20.900;2024-01-06T08:12:23;18.35;;;7.05;;
70675;SDS011;59069;52.242;20.900;2024-01-06T08:14:48;18.93;;;6.77;;
70675;SDS011;59069;52.242;20.900;2024-01-06T08:17:14;16.47;;;6.70;;
70675;SDS011;59069;52.242;20.900;2024-01-06T08:19:39;20.27;;;7.30;;
70675;SDS011;59069;52.242;20.900;2024-01-06T08:22:05;19.48;;;7.18;;
70675;SDS011;59069;52.242;20.900;2024-01-06T08:24:30;15.83;;;6.90;;
70675;SDS011;59069;52.242;20.900;2024-01-06T08:26:55;18.33;;;7.50;;
70675;SDS011;59069;52.242;20.900;2024-01-06T08:29:21;18.83;;;7.00;;
70675;SDS011;59069;52.242;20.900;2024-01-06T08:31:46;20.67;;;7.03;;
70675;SDS011;59069;52.242;20.900;2024-01-06T08:34:12;17.33;;;6.67;;
70675;SDS011;59069;52.242;20.900;2024-01-06T08:36:37;19.43;;;7.07;;
70675;SDS011;59069;52.242;20.900;2024-01-06T08:39:03;22.53;;;8.30;;
70675;SDS011;59069;52.242;20.900;2024-01-06T08:41:29;16.30;;;6.67;;
70675;SDS011;59069;52.242;20.900;2024-01-06T08:43:54;17.50;;;6.80;;
70675;SDS011;59069;52.242;20.900;2024-01-06T08:46:19;16.57;;;6.70;;
70675;SDS011;59069;52.242;20.900;2024-01-06T08:48:45;17.90;;;6.83;;
70675;SDS011;59069;52.242;20.900;2024-01-06T08:51:10;16.93;;;6.30;;
70675;SDS011;59069;52.242;20.900;2024-01-06T08:53:36;15.95;;;6.63;;
70675;SDS011;59069;52.242;20.900;2024-01-06T08:56:01;18.13;;;6.83;;
70675;SDS011;59069;52.242;20.900;2024-01-06T08:58:27;29.43;;;11.17;;
70675;SDS011;59069;52.242;20.900;2024-01-06T09:00:52;16.13;;;6.43;;
70675;SDS011;59069;52.242;20.900;2024-01-06T09:03:18;14.88;;;5.97;;
70675;SDS011;59069;52.242;20.900;2024-01-06T09:05:50;16.95;;;6.55;;
70675;SDS011;59069;52.242;20.900;2024-01-06T09:08:17;21.50;;;6.82;;
70675;SDS011;59069;52.242;20.900;2024-01-06T09:10:42;17.10;;;6.30;;
70675;SDS011;59069;52.242;20.900;2024-01-06T09:13:08;16.93;;;6.70;;
70675;SDS011;59069;52.242;20.900;2024-01-06T09:15:33;16.80;;;6.40;;
70675;SDS011;59069;52.242;20.900;2024-01-06T09:17:59;15.03;;;6.03;;
70675;SDS011;59069;52.242;20.900;2024-01-06T09:20:24;14.77;;;5.77;;
70675;SDS011;59069;52.242;20.900;2024-01-06T09:22:49;20.50;;;5.90;;
70675;SDS011;59069;52.242;20.900;2024-01-06T09:25:15;14.30;;;5.90;;
70675;SDS011;59069;52.242;20.900;2024-01-06T09:27:40;15.90;;;6.20;;
70675;SDS011;59069;52.242;20.900;2024-01-06T09:30:06;15.43;;;6.07;;
70675;SDS011;59069;52.242;20.900;2024-01-06T09:32:33;15.00;;;5.80;;
70675;SDS011;59069;52.242;20.900;2024-01-06T09:34:58;13.97;;;5.53;;
70675;SDS011;59069;52.242;20.900;2024-01-06T09:37:24;13.07;;;5.73;;
70675;SDS011;59069;52.242;20.900;2024-01-06T09:39:49;14.50;;;6.32;;
70675;SDS011;59069;52.242;20.900;2024-01-06T09:42:14;15.27;;;6.00;;
70675;SDS011;59069;52.242;20.900;2024-01-06T09:44:40;13.83;;;5.60;;
70675;SDS011;59069;52.242;20.900;2024-01-06T09:47:05;19.80;;;6.30;;
70675;SDS011;59069;52.242;20.900;2024-01-06T09:49:31;12.80;;;5.22;;
70675;SDS011;59069;52.242;20.900;2024-01-06T09:52:00;15.40;;;5.87;;
70675;SDS011;59069;52.242;20.900;2024-01-06T09:54:28;14.13;;;5.90;;
70675;SDS011;59069;52.242;20.900;2024-01-06T09:56:58;21.77;;;7.68;;
70675;SDS011;59069;52.242;20.900;2024-01-06T09:59:25;15.52;;;5.93;;
70675;SDS011;59069;52.242;20.900;2024-01-06T10:01:51;14.77;;;6.23;;
70675;SDS011;59069;52.242;20.900;2024-01-06T10:04:17;14.50;;;5.68;;
70675;SDS011;59069;52.242;20.900;2024-01-06T10:06:43;11.83;;;5.23;;
70675;SDS011;59069;52.242;20.900;2024-01-06T10:09:08;16.37;;;5.60;;
70675;SDS011;59069;52.242;20.900;2024-01-06T10:11:35;14.20;;;5.63;;
70675;SDS011;59069;52.242;20.900;2024-01-06T10:14:02;13.15;;;5.13;;
70675;SDS011;59069;52.242;20.900;2024-01-06T10:16:29;13.50;;;5.60;;
70675;SDS011;59069;52.242;20.900;2024-01-06T10:18:54;16.17;;;5.30;;
70675;SDS011;59069;52.242;20.900;2024-01-06T10:21:20;13.37;;;4.80;;
70675;SDS011;59069;52.242;20.900;2024-01-06T10:23:47;14.10;;;5.30;;
70675;SDS011;59069;52.242;20.900;2024-01-06T10:26:13;12.43;;;4.93;;
70675;SDS011;59069;52.242;20.900;2024-01-06T10:28:39;14.70;;;5.23;;
70675;SDS011;59069;52.242;20.900;2024-01-06T10:31:04;13.18;;;5.68;;
70675;SDS011;59069;52.242;20.900;2024-01-06T10:33:30;14.80;;;4.63;;
70675;SDS011;59069;52.242;20.900;2024-01-06T10:35:58;14.10;;;5.47;;
70675;SDS011;59069;52.242;20.900;2024-01-06T10:38:25;17.17;;;5.20;;
70675;SDS011;59069;52.242;20.900;2024-01-06T10:41:01;14.48;;;5.47;;
70675;SDS011;59069;52.242;20.900;2024-01-06T10:43:32;15.40;;;5.37;;
70675;SDS011;59069;52.242;20.900;2024-01-06T10:46:03;14.82;;;4.95;;
70675;SDS011;59069;52.242;20.900;2024-01-06T10:48:33;14.40;;;5.35;;
70675;SDS011;59069;52.242;20.900;2024-01-06T10:50:59;16.73;;;5.30;;
70675;SDS011;59069;52.242;20.900;2024-01-06T10:53:27;13.60;;;5.40;;
70675;SDS011;59069;52.242;20.900;2024-01-06T10:55:52;15.13;;;5.40;;
70675;SDS011;59069;52.242;20.900;2024-01-06T10:58:18;15.02;;;5.75;;
70675;SDS011;59069;52.242;20.900;2024-01-06T11:00:45;16.57;;;5.63;;
70675;SDS011;59069;52.242;20.900;2024-01-06T11:03:11;15.40;;;5.25;;
70675;SDS011;59069;52.242;20.900;2024-01-06T11:05:38;15.98;;;5.43;;
70675;SDS011;59069;52.242;20.900;2024-01-06T11:08:06;16.15;;;6.03;;
70675;SDS011;59069;52.242;20.900;2024-01-06T11:10:32;15.38;;;5.75;;
70675;SDS011;59069;52.242;20.900;2024-01-06T11:13:08;13.43;;;5.30;;
70675;SDS011;59069;52.242;20.900;2024-01-06T11:15:44;14.90;;;5.13;;
70675;SDS011;59069;52.242;20.900;2024-01-06T11:18:30;17.38;;;5.88;;
70675;SDS011;59069;52.242;20.900;2024-01-06T11:26:31;16.00;;;5.20;;
70675;SDS011;59069;52.242;20.900;2024-01-06T11:28:57;14.73;;;5.97;;
70675;SDS011;59069;52.242;20.900;2024-01-06T11:31:30;18.00;;;5.78;;
70675;SDS011;59069;52.242;20.900;2024-01-06T11:33:56;14.50;;;5.60;;
70675;SDS011;59069;52.242;20.900;2024-01-06T11:36:21;14.27;;;5.70;;
70675;SDS011;59069;52.242;20.900;2024-01-06T11:38:47;13.65;;;5.43;;
70675;SDS011;59069;52.242;20.900;2024-01-06T11:44:22;14.50;;;5.07;;
70675;SDS011;59069;52.242;20.900;2024-01-06T11:46:48;15.35;;;5.75;;
70675;SDS011;59069;52.242;20.900;2024-01-06T11:49:15;11.63;;;4.97;;
70675;SDS011;59069;52.242;20.900;2024-01-06T11:51:41;15.40;;;5.00;;
70675;SDS011;59069;52.242;20.900;2024-01-06T11:54:06;13.17;;;4.77;;
70675;SDS011;59069;52.242;20.900;2024-01-06T11:56:32;13.63;;;4.93;;
70675;SDS011;59069;52.242;20.900;2024-01-06T11:58:57;13.20;;;5.10;;
70675;SDS011;59069;52.242;20.900;2024-01-06T12:01:23;11.90;;;4.93;;
70675;SDS011;59069;52.242;20.900;2024-01-06T12:03:54;14.27;;;5.30;;
70675;SDS011;59069;52.242;20.900;2024-01-06T12:06:20;12.18;;;4.60;;
70675;SDS011;59069;52.242;20.900;2024-01-06T12:08:48;14.05;;;4.95;;
70675;SDS011;59069;52.242;20.900;2024-01-06T12:11:16;15.00;;;5.87;;
70675;SDS011;59069;52.242;20.900;2024-01-06T12:13:43;13.40;;;5.60;;
70675;SDS011;59069;52.242;20.900;2024-01-06T12:16:09;14.02;;;4.95;;
70675;SDS011;59069;52.242;20.900;2024-01-06T12:18:35;14.00;;;5.43;;
70675;SDS011;59069;52.242;20.900;2024-01-06T12:21:00;13.60;;;5.17;;
70675;SDS011;59069;52.242;20.900;2024-01-06T12:23:26;12.20;;;4.80;;
70675;SDS011;59069;52.242;20.900;2024-01-06T12:25:53;13.52;;;4.63;;
70675;SDS011;59069;52.242;20.900;2024-01-06T12:28:19;13.47;;;4.50;;
70675;SDS011;59069;52.242;20.900;2024-01-06T12:30:44;13.40;;;5.18;;
70675;SDS011;59069;52.242;20.900;2024-01-06T12:33:10;12.10;;;4.20;;
70675;SDS011;59069;52.242;20.900;2024-01-06T12:35:35;11.68;;;4.05;;
70675;SDS011;59069;52.242;20.900;2024-01-06T12:38:01;11.07;;;3.80;;
70675;SDS011;59069;52.242;20.900;2024-01-06T12:40:31;9.70;;;3.60;;
70675;SDS011;59069;52.242;20.900;2024-01-06T12:42:56;11.27;;;3.83;;
70675;SDS011;59069;52.242;20.900;2024-01-06T12:45:22;11.47;;;3.90;;
70675;SDS011;59069;52.242;20.900;2024-01-06T12:47:47;11.47;;;3.97;;
70675;SDS011;59069;52.242;20.900;2024-01-06T12:50:13;10.97;;;3.97;;
70675;SDS011;59069;52.242;20.900;2024-01-06T12:52:39;10.38;;;3.63;;
70675;SDS011;59069;52.242;20.900;2024-01-06T12:55:05;11.23;;;3.90;;
70675;SDS011;59069;52.242;20.900;2024-01-06T12:57:31;10.25;;;3.90;;
70675;SDS011;59069;52.242;20.900;2024-01-06T12:59:57;11.63;;;3.33;;
70675;SDS011;59069;52.242;20.900;2024-01-06T13:02:22;11.50;;;4.00;;
70675;SDS011;59069;52.242;20.900;2024-01-06T13:04:48;9.60;;;3.53;;
70675;SDS011;59069;52.242;20.900;2024-01-06T13:07:13;15.43;;;4.67;;
70675;SDS011;59069;52.242;20.900;2024-01-06T13:09:39;12.13;;;4.10;;
70675;SDS011;59069;52.242;20.900;2024-01-06T13:12:04;12.50;;;4.50;;
70675;SDS011;59069;52.242;20.900;2024-01-06T13:14:30;14.63;;;4.65;;
70675;SDS011;59069;52.242;20.900;2024-01-06T13:16:56;11.10;;;3.72;;
70675;SDS011;59069;52.242;20.900;2024-01-06T13:19:23;14.57;;;4.70;;
70675;SDS011;59069;52.242;20.900;2024-01-06T13:21:49;15.80;;;5.00;;
70675;SDS011;59069;52.242;20.900;2024-01-06T13:24:14;12.77;;;3.90;;
70675;SDS011;59069;52.242;20.900;2024-01-06T13:26:39;13.40;;;4.03;;
70675;SDS011;59069;52.242;20.900;2024-01-06T13:29:05;9.52;;;3.53;;
70675;SDS011;59069;52.242;20.900;2024-01-06T13:31:30;10.17;;;3.87;;
70675;SDS011;59069;52.242;20.900;2024-01-06T13:33:56;9.90;;;4.10;;
70675;SDS011;59069;52.242;20.900;2024-01-06T13:36:21;10.02;;;3.45;;
70675;SDS011;59069;52.242;20.900;2024-01-06T13:38:47;10.67;;;3.80;;
70675;SDS011;59069;52.242;20.900;2024-01-06T13:41:13;11.82;;;3.90;;
70675;SDS011;59069;52.242;20.900;2024-01-06T13:43:39;12.17;;;4.00;;
70675;SDS011;59069;52.242;20.900;2024-01-06T13:46:04;12.38;;;3.65;;
70675;SDS011;59069;52.242;20.900;2024-01-06T13:48:30;11.23;;;3.30;;
70675;SDS011;59069;52.242;20.900;2024-01-06T13:50:55;12.73;;;3.50;;
70675;SDS011;59069;52.242;20.900;2024-01-06T13:53:22;18.85;;;5.38;;
70675;SDS011;59069;52.242;20.900;2024-01-06T13:55:47;10.20;;;3.63;;
70675;SDS011;59069;52.242;20.900;2024-01-06T13:58:13;10.53;;;3.20;;
70675;SDS011;59069;52.242;20.900;2024-01-06T14:00:39;11.60;;;3.47;;
70675;SDS011;59069;52.242;20.900;2024-01-06T14:03:04;10.13;;;3.20;;
70675;SDS011;59069;52.242;20.900;2024-01-06T14:05:31;8.70;;;2.93;;
70675;SDS011;59069;52.242;20.900;2024-01-06T14:07:58;12.13;;;3.33;;
70675;SDS011;59069;52.242;20.900;2024-01-06T14:10:23;9.97;;;3.10;;
70675;SDS011;59069;52.242;20.900;2024-01-06T14:12:48;9.95;;;3.00;;
70675;SDS011;59069;52.242;20.900;2024-01-06T14:15:14;9.07;;;2.77;;
70675;SDS011;59069;52.242;20.900;2024-01-06T14:17:40;10.13;;;3.08;;
70675;SDS011;59069;52.242;20.900;2024-01-06T14:20:06;10.23;;;3.00;;
70675;SDS011;59069;52.242;20.900;2024-01-06T14:22:34;9.90;;;3.30;;